sensor_id;sensor_type;location;lat;lon;timestamp;temperature;humidity
40291;DHT22;26000;48.304;13.626;2023-03-01T00:01:45;2.30;99.90
40291;DHT22;26000;48.304;13.626;2023-03-01T00:04:11;2.50;99.90
40291;DHT22;26000;48.304;13.626;2023-03-01T00:06:36;2.50;99.90
40291;DHT22;26000;48.304;13.626;2023-03-01T00:09:03;2.40;99.90
40291;DHT22;26000;48.304;13.626;2023-03-01T00:11:30;2.40;99.90
40291;DHT22;26000;48.304;13.626;2023-03-01T00:13:58;2.50;99.90
40291;DHT22;26000;48.304;13.626;2023-03-01T00:16:29;2.40;99.90
40291;DHT22;26000;48.304;13.626;2023-03-01T00:18:56;2.40;99.90
40291;DHT22;26000;48.304;13.626;2023-03-01T00:21:22;2.40;99.90
40291;DHT22;26000;48.304;13.626;2023-03-01T00:23:48;2.40;99.90
40291;DHT22;26000;48.304;13.626;2023-03-01T00:26:16;2.30;99.90
40291;DHT22;26000;48.304;13.626;2023-03-01T00:28:42;2.30;99.90
40291;DHT22;26000;48.304;13.626;2023-03-01T00:31:11;2.30;99.90
40291;DHT22;26000;48.304;13.626;2023-03-01T00:33:39;2.30;99.90
40291;DHT22;26000;48.304;13.626;2023-03-01T00:36:05;2.30;99.90
40291;DHT22;26000;48.304;13.626;2023-03-01T00:38:35;2.30;99.90
40291;DHT22;26000;48.304;13.626;2023-03-01T00:41:09;2.30;99.90
40291;DHT22;26000;48.304;13.626;2023-03-01T00:43:35;2.30;99.90
40291;DHT22;26000;48.304;13.626;2023-03-01T00:46:12;2.20;99.90
40291;DHT22;26000;48.304;13.626;2023-03-01T00:48:38;2.20;99.90
40291;DHT22;26000;48.304;13.626;2023-03-01T00:51:12;2.10;99.90
40291;DHT22;26000;48.304;13.626;2023-03-01T00:53:38;2.30;99.90
40291;DHT22;26000;48.304;13.626;2023-03-01T00:56:06;2.20;99.90
40291;DHT22;26000;48.304;13.626;2023-03-01T00:58:32;2.20;99.90
40291;DHT22;26000;48.304;13.626;2023-03-01T01:00:58;2.10;99.90
40291;DHT22;26000;48.304;13.626;2023-03-01T01:03:24;2.10;99.90
40291;DHT22;26000;48.304;13.626;2023-03-01T01:05:53;2.10;99.90
40291;DHT22;26000;48.304;13.626;2023-03-01T01:08:19;2.10;99.90
40291;DHT22;26000;48.304;13.626;2023-03-01T01:10:46;2.10;99.90
40291;DHT22;26000;48.304;13.626;2023-03-01T01:13:12;2.10;99.90
40291;DHT22;26000;48.304;13.626;2023-03-01T01:15:38;2.10;99.90
40291;DHT22;26000;48.304;13.626;2023-03-01T01:18:04;2.10;99.90
40291;DHT22;26000;48.304;13.626;2023-03-01T01:20:30;2.20;99.90
40291;DHT22;26000;48.304;13.626;2023-03-01T01:22:56;2.10;99.90
40291;DHT22;26000;48.304;13.626;2023-03-01T01:25:21;2.10;99.90
40291;DHT22;26000;48.304;13.626;2023-03-01T01:27:50;2.10;99.90
40291;DHT22;26000;48.304;13.626;2023-03-01T01:30:17;2.00;99.90
40291;DHT22;26000;48.304;13.626;2023-03-01T01:32:42;2.00;99.90
40291;DHT22;26000;48.304;13.626;2023-03-01T01:35:08;2.00;99.90
40291;DHT22;26000;48.304;13.626;2023-03-01T01:37:33;1.90;99.90
40291;DHT22;26000;48.304;13.626;2023-03-01T01:40:00;2.00;99.90
40291;DHT22;26000;48.304;13.626;2023-03-01T01:42:26;1.90;99.90
40291;DHT22;26000;48.304;13.626;2023-03-01T01:47:50;1.80;99.90
40291;DHT22;26000;48.304;13.626;2023-03-01T01:50:18;1.90;99.90
40291;DHT22;26000;48.304;13.626;2023-03-01T01:52:45;1.90;99.90
40291;DHT22;26000;48.304;13.626;2023-03-01T01:55:19;1.90;99.90
40291;DHT22;26000;48.304;13.626;2023-03-01T01:57:53;1.80;99.90
40291;DHT22;26000;48.304;13.626;2023-03-01T02:00:23;1.90;99.90
40291;DHT22;26000;48.304;13.626;2023-03-01T02:02:51;1.80;99.90
40291;DHT22;26000;48.304;13.626;2023-03-01T02:05:39;1.80;99.90
40291;DHT22;26000;48.304;13.626;2023-03-01T02:08:11;1.70;99.90
40291;DHT22;26000;48.304;13.626;2023-03-01T02:10:38;1.60;99.90
40291;DHT22;26000;48.304;13.626;2023-03-01T02:13:04;1.70;99.90
40291;DHT22;26000;48.304;13.626;2023-03-01T02:15:35;1.70;99.90
40291;DHT22;26000;48.304;13.626;2023-03-01T02:18:02;1.70;99.90
40291;DHT22;26000;48.304;13.626;2023-03-01T02:20:43;1.70;99.90
40291;DHT22;26000;48.304;13.626;2023-03-01T02:23:10;1.70;99.90
40291;DHT22;26000;48.304;13.626;2023-03-01T02:30:44;1.60;99.90
40291;DHT22;26000;48.304;13.626;2023-03-01T02:33:30;1.70;99.90
40291;DHT22;26000;48.304;13.626;2023-03-01T02:36:03;1.70;99.90
40291;DHT22;26000;48.304;13.626;2023-03-01T02:38:31;1.70;99.90
40291;DHT22;26000;48.304;13.626;2023-03-01T02:40:57;1.60;99.90
40291;DHT22;26000;48.304;13.626;2023-03-01T02:43:27;1.70;99.90
40291;DHT22;26000;48.304;13.626;2023-03-01T02:45:57;1.70;99.90
40291;DHT22;26000;48.304;13.626;2023-03-01T02:48:23;1.60;99.90
40291;DHT22;26000;48.304;13.626;2023-03-01T02:54:06;1.70;99.90
40291;DHT22;26000;48.304;13.626;2023-03-01T02:56:33;1.60;99.90
40291;DHT22;26000;48.304;13.626;2023-03-01T02:59:00;1.60;99.90
40291;DHT22;26000;48.304;13.626;2023-03-01T03:01:27;1.60;99.90
40291;DHT22;26000;48.304;13.626;2023-03-01T03:04:05;1.50;99.90
40291;DHT22;26000;48.304;13.626;2023-03-01T03:06:31;1.50;99.90
40291;DHT22;26000;48.304;13.626;2023-03-01T03:08:57;1.50;99.90
40291;DHT22;26000;48.304;13.626;2023-03-01T03:11:23;1.50;99.90
40291;DHT22;26000;48.304;13.626;2023-03-01T03:13:48;1.50;99.90
40291;DHT22;26000;48.304;13.626;2023-03-01T03:16:15;1.50;99.90
40291;DHT22;26000;48.304;13.626;2023-03-01T03:18:40;1.40;99.90
40291;DHT22;26000;48.304;13.626;2023-03-01T03:21:11;1.40;99.90
40291;DHT22;26000;48.304;13.626;2023-03-01T03:23:37;1.40;99.90
40291;DHT22;26000;48.304;13.626;2023-03-01T03:26:04;1.40;99.90
40291;DHT22;26000;48.304;13.626;2023-03-01T03:28:34;1.40;99.90
40291;DHT22;26000;48.304;13.626;2023-03-01T03:31:00;1.30;99.90
40291;DHT22;26000;48.304;13.626;2023-03-01T03:33:29;1.30;99.90
40291;DHT22;26000;48.304;13.626;2023-03-01T03:35:55;1.20;99.90
40291;DHT22;26000;48.304;13.626;2023-03-01T03:38:21;1.20;99.90
40291;DHT22;26000;48.304;13.626;2023-03-01T03:41:00;1.20;99.90
40291;DHT22;26000;48.304;13.626;2023-03-01T03:43:28;1.10;99.90
40291;DHT22;26000;48.304;13.626;2023-03-01T03:45:53;1.10;99.90
40291;DHT22;26000;48.304;13.626;2023-03-01T03:48:19;1.10;99.90
40291;DHT22;26000;48.304;13.626;2023-03-01T03:50:51;1.10;99.90
40291;DHT22;26000;48.304;13.626;2023-03-01T03:53:18;1.20;99.90
40291;DHT22;26000;48.304;13.626;2023-03-01T03:55:44;1.20;99.90
40291;DHT22;26000;48.304;13.626;2023-03-01T03:58:11;1.20;99.90
40291;DHT22;26000;48.304;13.626;2023-03-01T04:00:37;1.20;99.90
40291;DHT22;26000;48.304;13.626;2023-03-01T04:03:04;1.20;99.90
40291;DHT22;26000;48.304;13.626;2023-03-01T04:05:30;1.20;99.90
40291;DHT22;26000;48.304;13.626;2023-03-01T04:07:56;1.20;99.90
40291;DHT22;26000;48.304;13.626;2023-03-01T04:10:29;1.10;99.90
40291;DHT22;26000;48.304;13.626;2023-03-01T04:12:56;1.10;99.90
40291;DHT22;26000;48.304;13.626;2023-03-01T04:15:23;1.10;99.90
40291;DHT22;26000;48.304;13.626;2023-03-01T04:17:50;1.10;99.90
40291;DHT22;26000;48.304;13.626;2023-03-01T04:20:20;1.10;99.90
40291;DHT22;26000;48.304;13.626;2023-03-01T04:22:52;1.00;99.90
40291;DHT22;26000;48.304;13.626;2023-03-01T04:25:18;1.00;99.90
40291;DHT22;26000;48.304;13.626;2023-03-01T04:27:44;1.00;99.90
40291;DHT22;26000;48.304;13.626;2023-03-01T04:30:10;1.00;99.90
40291;DHT22;26000;48.304;13.626;2023-03-01T04:32:36;1.00;99.90
40291;DHT22;26000;48.304;13.626;2023-03-01T04:35:01;1.10;99.90
40291;DHT22;26000;48.304;13.626;2023-03-01T04:37:27;1.20;99.90
40291;DHT22;26000;48.304;13.626;2023-03-01T04:39:53;1.20;99.90
40291;DHT22;26000;48.304;13.626;2023-03-01T04:42:19;1.30;99.90
40291;DHT22;26000;48.304;13.626;2023-03-01T04:44:45;1.30;99.90
40291;DHT22;26000;48.304;13.626;2023-03-01T04:47:11;1.20;99.90
40291;DHT22;26000;48.304;13.626;2023-03-01T04:49:37;1.20;99.90
40291;DHT22;26000;48.304;13.626;2023-03-01T04:52:04;1.20;99.90
40291;DHT22;26000;48.304;13.626;2023-03-01T04:54:33;1.10;99.90
40291;DHT22;26000;48.304;13.626;2023-03-01T04:57:00;1.20;99.90
40291;DHT22;26000;48.304;13.626;2023-03-01T04:59:26;1.30;99.90
40291;DHT22;26000;48.304;13.626;2023-03-01T05:01:52;1.20;99.90
40291;DHT22;26000;48.304;13.626;2023-03-01T05:04:21;1.10;99.90
40291;DHT22;26000;48.304;13.626;2023-03-01T05:06:47;0.90;99.90
40291;DHT22;26000;48.304;13.626;2023-03-01T05:09:12;0.90;99.90
40291;DHT22;26000;48.304;13.626;2023-03-01T05:11:38;0.80;99.90
40291;DHT22;26000;48.304;13.626;2023-03-01T05:14:04;0.70;99.90
40291;DHT22;26000;48.304;13.626;2023-03-01T05:16:30;0.80;99.90
40291;DHT22;26000;48.304;13.626;2023-03-01T05:18:57;0.70;99.90
40291;DHT22;26000;48.304;13.626;2023-03-01T05:21:24;0.80;99.90
40291;DHT22;26000;48.304;13.626;2023-03-01T05:23:50;0.80;99.90
40291;DHT22;26000;48.304;13.626;2023-03-01T05:26:18;0.90;99.90
40291;DHT22;26000;48.304;13.626;2023-03-01T05:28:45;0.90;99.90
40291;DHT22;26000;48.304;13.626;2023-03-01T05:31:10;0.90;99.90
40291;DHT22;26000;48.304;13.626;2023-03-01T05:33:40;0.90;99.90
40291;DHT22;26000;48.304;13.626;2023-03-01T05:36:07;0.90;99.90
40291;DHT22;26000;48.304;13.626;2023-03-01T05:38:34;0.80;99.90
40291;DHT22;26000;48.304;13.626;2023-03-01T05:40:59;0.70;99.90
40291;DHT22;26000;48.304;13.626;2023-03-01T05:43:25;0.70;99.90
40291;DHT22;26000;48.304;13.626;2023-03-01T05:45:51;0.60;99.90
40291;DHT22;26000;48.304;13.626;2023-03-01T05:48:17;0.60;99.90
40291;DHT22;26000;48.304;13.626;2023-03-01T05:50:45;0.60;99.90
40291;DHT22;26000;48.304;13.626;2023-03-01T05:53:13;0.70;99.90
40291;DHT22;26000;48.304;13.626;2023-03-01T05:55:39;0.70;99.90
40291;DHT22;26000;48.304;13.626;2023-03-01T05:58:09;0.70;99.90
40291;DHT22;26000;48.304;13.626;2023-03-01T06:00:35;0.60;99.90
40291;DHT22;26000;48.304;13.626;2023-03-01T06:03:00;0.60;99.90
40291;DHT22;26000;48.304;13.626;2023-03-01T06:05:27;0.60;99.90
40291;DHT22;26000;48.304;13.626;2023-03-01T06:07:53;0.70;99.90
40291;DHT22;26000;48.304;13.626;2023-03-01T06:10:20;0.80;99.90
40291;DHT22;26000;48.304;13.626;2023-03-01T06:12:46;0.90;99.90
40291;DHT22;26000;48.304;13.626;2023-03-01T06:15:14;1.20;99.90
40291;DHT22;26000;48.304;13.626;2023-03-01T06:17:42;1.80;99.90
40291;DHT22;26000;48.304;13.626;2023-03-01T06:20:15;2.70;99.90
40291;DHT22;26000;48.304;13.626;2023-03-01T06:22:41;3.40;99.90
40291;DHT22;26000;48.304;13.626;2023-03-01T06:25:07;4.10;99.90
40291;DHT22;26000;48.304;13.626;2023-03-01T06:27:33;4.70;99.90
40291;DHT22;26000;48.304;13.626;2023-03-01T06:29:59;4.90;99.90
40291;DHT22;26000;48.304;13.626;2023-03-01T06:32:24;5.30;99.90
40291;DHT22;26000;48.304;13.626;2023-03-01T06:34:50;5.50;99.80
40291;DHT22;26000;48.304;13.626;2023-03-01T06:37:16;5.30;99.80
40291;DHT22;26000;48.304;13.626;2023-03-01T06:39:42;5.30;99.80
40291;DHT22;26000;48.304;13.626;2023-03-01T06:42:08;5.20;99.60
40291;DHT22;26000;48.304;13.626;2023-03-01T06:44:35;5.30;99.70
40291;DHT22;26000;48.304;13.626;2023-03-01T06:47:01;5.60;99.90
40291;DHT22;26000;48.304;13.626;2023-03-01T06:49:27;6.00;99.50
40291;DHT22;26000;48.304;13.626;2023-03-01T06:51:52;6.30;98.50
40291;DHT22;26000;48.304;13.626;2023-03-01T06:54:18;6.50;98.20
40291;DHT22;26000;48.304;13.626;2023-03-01T06:56:46;6.50;97.80
40291;DHT22;26000;48.304;13.626;2023-03-01T06:59:12;6.50;97.30
40291;DHT22;26000;48.304;13.626;2023-03-01T07:01:38;6.10;97.70
40291;DHT22;26000;48.304;13.626;2023-03-01T07:04:04;6.00;99.30
40291;DHT22;26000;48.304;13.626;2023-03-01T07:06:29;5.90;99.90
40291;DHT22;26000;48.304;13.626;2023-03-01T07:08:55;5.80;99.30
40291;DHT22;26000;48.304;13.626;2023-03-01T07:11:21;5.60;99.20
40291;DHT22;26000;48.304;13.626;2023-03-01T07:13:46;5.50;99.70
40291;DHT22;26000;48.304;13.626;2023-03-01T07:16:12;5.30;99.50
40291;DHT22;26000;48.304;13.626;2023-03-01T07:18:39;5.40;99.90
40291;DHT22;26000;48.304;13.626;2023-03-01T07:21:09;5.40;99.20
40291;DHT22;26000;48.304;13.626;2023-03-01T07:23:36;5.30;99.10
40291;DHT22;26000;48.304;13.626;2023-03-01T07:26:02;5.00;99.80
40291;DHT22;26000;48.304;13.626;2023-03-01T07:28:28;4.70;99.90
40291;DHT22;26000;48.304;13.626;2023-03-01T07:30:54;4.70;99.90
40291;DHT22;26000;48.304;13.626;2023-03-01T07:33:20;4.80;99.90
40291;DHT22;26000;48.304;13.626;2023-03-01T07:35:45;4.80;99.90
40291;DHT22;26000;48.304;13.626;2023-03-01T07:38:11;4.90;99.90
40291;DHT22;26000;48.304;13.626;2023-03-01T07:40:36;5.00;99.90
40291;DHT22;26000;48.304;13.626;2023-03-01T07:43:02;4.90;99.90
40291;DHT22;26000;48.304;13.626;2023-03-01T07:45:28;5.00;99.90
40291;DHT22;26000;48.304;13.626;2023-03-01T07:47:55;5.20;99.90
40291;DHT22;26000;48.304;13.626;2023-03-01T07:50:21;5.50;99.90
40291;DHT22;26000;48.304;13.626;2023-03-01T07:52:48;5.60;99.90
40291;DHT22;26000;48.304;13.626;2023-03-01T07:55:15;5.50;99.50
40291;DHT22;26000;48.304;13.626;2023-03-01T07:57:41;5.50;99.90
40291;DHT22;26000;48.304;13.626;2023-03-01T08:00:09;5.50;99.90
40291;DHT22;26000;48.304;13.626;2023-03-01T08:02:35;5.40;99.60
40291;DHT22;26000;48.304;13.626;2023-03-01T08:05:01;5.30;99.30
40291;DHT22;26000;48.304;13.626;2023-03-01T08:07:26;5.10;99.90
40291;DHT22;26000;48.304;13.626;2023-03-01T08:09:52;5.10;99.90
40291;DHT22;26000;48.304;13.626;2023-03-01T08:12:17;5.20;99.30
40291;DHT22;26000;48.304;13.626;2023-03-01T08:14:43;5.20;99.50
40291;DHT22;26000;48.304;13.626;2023-03-01T08:17:09;5.30;99.80
40291;DHT22;26000;48.304;13.626;2023-03-01T08:19:34;5.40;99.90
40291;DHT22;26000;48.304;13.626;2023-03-01T08:22:03;5.30;99.90
40291;DHT22;26000;48.304;13.626;2023-03-01T08:24:28;5.60;99.90
40291;DHT22;26000;48.304;13.626;2023-03-01T08:26:55;5.90;98.50
40291;DHT22;26000;48.304;13.626;2023-03-01T08:29:21;5.90;98.20
40291;DHT22;26000;48.304;13.626;2023-03-01T08:31:47;6.00;98.40
40291;DHT22;26000;48.304;13.626;2023-03-01T08:34:15;5.70;98.20
40291;DHT22;26000;48.304;13.626;2023-03-01T08:36:43;5.80;98.50
40291;DHT22;26000;48.304;13.626;2023-03-01T08:39:12;6.20;98.30
40291;DHT22;26000;48.304;13.626;2023-03-01T08:41:38;6.30;97.70
40291;DHT22;26000;48.304;13.626;2023-03-01T08:44:05;6.20;97.90
40291;DHT22;26000;48.304;13.626;2023-03-01T08:46:33;6.50;97.80
40291;DHT22;26000;48.304;13.626;2023-03-01T08:48:59;6.70;96.50
40291;DHT22;26000;48.304;13.626;2023-03-01T08:51:26;6.80;97.40
40291;DHT22;26000;48.304;13.626;2023-03-01T08:53:52;6.30;96.50
40291;DHT22;26000;48.304;13.626;2023-03-01T08:56:18;6.30;97.10
40291;DHT22;26000;48.304;13.626;2023-03-01T08:58:45;6.20;97.80
40291;DHT22;26000;48.304;13.626;2023-03-01T09:01:14;6.20;97.50
40291;DHT22;26000;48.304;13.626;2023-03-01T09:03:40;6.30;97.60
40291;DHT22;26000;48.304;13.626;2023-03-01T09:06:07;6.50;97.70
40291;DHT22;26000;48.304;13.626;2023-03-01T09:08:42;6.50;96.80
40291;DHT22;26000;48.304;13.626;2023-03-01T09:11:10;6.60;96.70
40291;DHT22;26000;48.304;13.626;2023-03-01T09:13:36;6.40;96.70
40291;DHT22;26000;48.304;13.626;2023-03-01T09:16:03;6.30;97.20
40291;DHT22;26000;48.304;13.626;2023-03-01T09:18:29;6.20;97.50
40291;DHT22;26000;48.304;13.626;2023-03-01T09:23:36;6.70;97.30
40291;DHT22;26000;48.304;13.626;2023-03-01T09:26:05;6.40;96.70
40291;DHT22;26000;48.304;13.626;2023-03-01T09:28:30;6.40;97.30
40291;DHT22;26000;48.304;13.626;2023-03-01T09:31:00;6.50;97.70
40291;DHT22;26000;48.304;13.626;2023-03-01T09:33:30;6.50;96.90
40291;DHT22;26000;48.304;13.626;2023-03-01T09:36:03;6.70;97.20
40291;DHT22;26000;48.304;13.626;2023-03-01T09:38:29;7.10;96.50
40291;DHT22;26000;48.304;13.626;2023-03-01T09:40:55;7.30;95.60
40291;DHT22;26000;48.304;13.626;2023-03-01T09:43:36;7.10;95.80
40291;DHT22;26000;48.304;13.626;2023-03-01T09:46:07;7.10;96.30
40291;DHT22;26000;48.304;13.626;2023-03-01T09:49:01;7.10;95.80
40291;DHT22;26000;48.304;13.626;2023-03-01T09:51:34;7.00;96.00
40291;DHT22;26000;48.304;13.626;2023-03-01T09:54:04;7.10;96.60
40291;DHT22;26000;48.304;13.626;2023-03-01T09:56:37;7.10;96.20
40291;DHT22;26000;48.304;13.626;2023-03-01T10:09:35;7.40;96.20
40291;DHT22;26000;48.304;13.626;2023-03-01T10:12:02;7.20;95.90
40291;DHT22;26000;48.304;13.626;2023-03-01T10:14:40;7.10;96.60
40291;DHT22;26000;48.304;13.626;2023-03-01T10:17:30;7.30;96.40
40291;DHT22;26000;48.304;13.626;2023-03-01T10:20:24;7.30;97.10
40291;DHT22;26000;48.304;13.626;2023-03-01T10:22:50;7.40;96.80
40291;DHT22;26000;48.304;13.626;2023-03-01T10:28:38;7.70;96.80
40291;DHT22;26000;48.304;13.626;2023-03-01T10:31:05;8.00;97.20
40291;DHT22;26000;48.304;13.626;2023-03-01T10:33:38;8.10;96.40
40291;DHT22;26000;48.304;13.626;2023-03-01T10:36:07;7.90;97.10
40291;DHT22;26000;48.304;13.626;2023-03-01T10:38:51;7.80;96.90
40291;DHT22;26000;48.304;13.626;2023-03-01T10:41:19;7.70;97.90
40291;DHT22;26000;48.304;13.626;2023-03-01T10:43:53;7.80;97.70
40291;DHT22;26000;48.304;13.626;2023-03-01T10:46:26;7.50;97.90
40291;DHT22;26000;48.304;13.626;2023-03-01T10:49:15;7.50;98.70
40291;DHT22;26000;48.304;13.626;2023-03-01T10:51:43;7.60;98.20
40291;DHT22;26000;48.304;13.626;2023-03-01T10:54:28;7.50;98.00
40291;DHT22;26000;48.304;13.626;2023-03-01T10:57:00;7.60;98.30
40291;DHT22;26000;48.304;13.626;2023-03-01T10:59:33;7.50;98.60
40291;DHT22;26000;48.304;13.626;2023-03-01T11:02:23;7.60;98.60
40291;DHT22;26000;48.304;13.626;2023-03-01T11:07:22;7.70;99.50
40291;DHT22;26000;48.304;13.626;2023-03-01T11:09:48;7.60;98.90
40291;DHT22;26000;48.304;13.626;2023-03-01T11:12:15;7.70;99.10
40291;DHT22;26000;48.304;13.626;2023-03-01T11:14:53;7.80;98.90
40291;DHT22;26000;48.304;13.626;2023-03-01T11:17:29;7.80;99.20
40291;DHT22;26000;48.304;13.626;2023-03-01T11:22:35;7.80;99.00
40291;DHT22;26000;48.304;13.626;2023-03-01T11:25:02;7.80;99.60
40291;DHT22;26000;48.304;13.626;2023-03-01T11:27:32;7.80;99.60
40291;DHT22;26000;48.304;13.626;2023-03-01T11:30:20;8.00;99.20
40291;DHT22;26000;48.304;13.626;2023-03-01T11:35:35;8.20;99.50
40291;DHT22;26000;48.304;13.626;2023-03-01T11:38:20;8.40;99.50
40291;DHT22;26000;48.304;13.626;2023-03-01T11:41:06;8.60;98.90
40291;DHT22;26000;48.304;13.626;2023-03-01T11:43:37;8.60;99.30
40291;DHT22;26000;48.304;13.626;2023-03-01T11:46:51;8.70;99.00
40291;DHT22;26000;48.304;13.626;2023-03-01T11:57:59;8.30;99.20
40291;DHT22;26000;48.304;13.626;2023-03-01T12:00:36;8.20;99.10
40291;DHT22;26000;48.304;13.626;2023-03-01T12:03:30;8.30;99.30
40291;DHT22;26000;48.304;13.626;2023-03-01T12:08:45;8.20;99.70
40291;DHT22;26000;48.304;13.626;2023-03-01T12:20:14;8.40;99.70
40291;DHT22;26000;48.304;13.626;2023-03-01T12:25:41;8.60;99.70
40291;DHT22;26000;48.304;13.626;2023-03-01T12:30:58;8.60;99.90
40291;DHT22;26000;48.304;13.626;2023-03-01T12:33:50;8.70;99.80
40291;DHT22;26000;48.304;13.626;2023-03-01T12:45:05;8.60;99.90
40291;DHT22;26000;48.304;13.626;2023-03-01T12:50:41;8.70;99.90
40291;DHT22;26000;48.304;13.626;2023-03-01T12:53:22;8.80;99.90
40291;DHT22;26000;48.304;13.626;2023-03-01T12:55:49;8.90;99.90
40291;DHT22;26000;48.304;13.626;2023-03-01T12:58:36;9.00;99.90
40291;DHT22;26000;48.304;13.626;2023-03-01T13:01:30;9.00;99.90
40291;DHT22;26000;48.304;13.626;2023-03-01T13:17:51;8.90;99.80
40291;DHT22;26000;48.304;13.626;2023-03-01T13:20:19;8.90;99.90
40291;DHT22;26000;48.304;13.626;2023-03-01T13:22:47;8.90;99.90
40291;DHT22;26000;48.304;13.626;2023-03-01T13:25:19;9.00;99.90
40291;DHT22;26000;48.304;13.626;2023-03-01T13:27:46;9.00;99.90
40291;DHT22;26000;48.304;13.626;2023-03-01T13:33:44;9.20;99.90
40291;DHT22;26000;48.304;13.626;2023-03-01T13:36:10;9.00;99.80
40291;DHT22;26000;48.304;13.626;2023-03-01T13:38:46;9.00;99.80
40291;DHT22;26000;48.304;13.626;2023-03-01T13:41:17;9.00;99.90
40291;DHT22;26000;48.304;13.626;2023-03-01T13:46:51;9.00;99.90
40291;DHT22;26000;48.304;13.626;2023-03-01T13:49:22;9.00;99.90
40291;DHT22;26000;48.304;13.626;2023-03-01T13:51:51;9.10;99.90
40291;DHT22;26000;48.304;13.626;2023-03-01T13:54:31;9.10;99.90
40291;DHT22;26000;48.304;13.626;2023-03-01T13:56:59;9.10;99.90
40291;DHT22;26000;48.304;13.626;2023-03-01T13:59:25;9.00;99.90
40291;DHT22;26000;48.304;13.626;2023-03-01T14:01:53;9.10;99.90
40291;DHT22;26000;48.304;13.626;2023-03-01T14:04:28;9.20;99.90
40291;DHT22;26000;48.304;13.626;2023-03-01T14:07:20;9.20;99.90
40291;DHT22;26000;48.304;13.626;2023-03-01T14:09:51;9.10;99.90
40291;DHT22;26000;48.304;13.626;2023-03-01T14:17:44;9.00;99.90
40291;DHT22;26000;48.304;13.626;2023-03-01T14:22:43;8.90;99.90
40291;DHT22;26000;48.304;13.626;2023-03-01T14:27:59;9.00;99.90
40291;DHT22;26000;48.304;13.626;2023-03-01T14:30:30;9.00;99.90
40291;DHT22;26000;48.304;13.626;2023-03-01T14:32:59;8.90;99.90
40291;DHT22;26000;48.304;13.626;2023-03-01T14:35:27;8.90;99.90
40291;DHT22;26000;48.304;13.626;2023-03-01T14:37:54;8.90;99.90
40291;DHT22;26000;48.304;13.626;2023-03-01T14:42:55;8.90;99.90
40291;DHT22;26000;48.304;13.626;2023-03-01T14:45:27;8.90;99.90
40291;DHT22;26000;48.304;13.626;2023-03-01T14:47:54;8.90;99.90
40291;DHT22;26000;48.304;13.626;2023-03-01T14:50:27;8.90;99.90
40291;DHT22;26000;48.304;13.626;2023-03-01T14:52:58;8.90;99.90
40291;DHT22;26000;48.304;13.626;2023-03-01T14:55:31;8.90;99.90
40291;DHT22;26000;48.304;13.626;2023-03-01T14:57:58;8.90;99.90
40291;DHT22;26000;48.304;13.626;2023-03-01T15:00:28;8.90;99.90
40291;DHT22;26000;48.304;13.626;2023-03-01T15:02:58;8.90;99.90
40291;DHT22;26000;48.304;13.626;2023-03-01T15:05:29;8.90;99.90
40291;DHT22;26000;48.304;13.626;2023-03-01T15:07:58;8.90;99.90
40291;DHT22;26000;48.304;13.626;2023-03-01T15:10:31;8.90;99.90
40291;DHT22;26000;48.304;13.626;2023-03-01T15:13:13;8.90;99.90
40291;DHT22;26000;48.304;13.626;2023-03-01T15:15:42;8.90;99.90
40291;DHT22;26000;48.304;13.626;2023-03-01T15:18:16;9.10;99.90
40291;DHT22;26000;48.304;13.626;2023-03-01T15:20:42;9.10;99.90
40291;DHT22;26000;48.304;13.626;2023-03-01T15:25:44;9.00;99.90
40291;DHT22;26000;48.304;13.626;2023-03-01T15:28:19;8.90;99.90
40291;DHT22;26000;48.304;13.626;2023-03-01T15:30:46;8.90;99.90
40291;DHT22;26000;48.304;13.626;2023-03-01T15:36:00;8.80;99.90
40291;DHT22;26000;48.304;13.626;2023-03-01T15:41:01;8.70;99.90
40291;DHT22;26000;48.304;13.626;2023-03-01T15:43:44;8.80;99.90
40291;DHT22;26000;48.304;13.626;2023-03-01T15:46:32;8.70;99.90
40291;DHT22;26000;48.304;13.626;2023-03-01T15:49:02;8.60;99.90
40291;DHT22;26000;48.304;13.626;2023-03-01T15:51:34;8.60;99.90
40291;DHT22;26000;48.304;13.626;2023-03-01T15:54:21;8.60;99.90
40291;DHT22;26000;48.304;13.626;2023-03-01T15:56:47;8.50;99.90
40291;DHT22;26000;48.304;13.626;2023-03-01T15:59:13;8.60;99.90
40291;DHT22;26000;48.304;13.626;2023-03-01T16:01:41;8.50;99.90
40291;DHT22;26000;48.304;13.626;2023-03-01T16:04:06;8.40;99.90
40291;DHT22;26000;48.304;13.626;2023-03-01T16:06:32;8.50;99.90
40291;DHT22;26000;48.304;13.626;2023-03-01T16:08:58;8.40;99.90
40291;DHT22;26000;48.304;13.626;2023-03-01T16:11:23;8.40;99.90
40291;DHT22;26000;48.304;13.626;2023-03-01T16:13:49;8.30;99.90
40291;DHT22;26000;48.304;13.626;2023-03-01T16:16:15;8.20;99.90
40291;DHT22;26000;48.304;13.626;2023-03-01T16:18:43;8.20;99.90
40291;DHT22;26000;48.304;13.626;2023-03-01T16:21:13;8.20;99.90
40291;DHT22;26000;48.304;13.626;2023-03-01T16:23:41;8.10;99.90
40291;DHT22;26000;48.304;13.626;2023-03-01T16:26:07;8.10;99.90
40291;DHT22;26000;48.304;13.626;2023-03-01T16:28:32;8.00;99.90
40291;DHT22;26000;48.304;13.626;2023-03-01T16:30:58;8.00;99.90
40291;DHT22;26000;48.304;13.626;2023-03-01T16:33:24;8.00;99.90
40291;DHT22;26000;48.304;13.626;2023-03-01T16:35:49;7.90;99.90
40291;DHT22;26000;48.304;13.626;2023-03-01T16:38:15;7.90;99.90
40291;DHT22;26000;48.304;13.626;2023-03-01T16:40:47;7.90;99.90
40291;DHT22;26000;48.304;13.626;2023-03-01T16:43:13;7.80;99.90
40291;DHT22;26000;48.304;13.626;2023-03-01T16:45:38;7.80;99.90
40291;DHT22;26000;48.304;13.626;2023-03-01T16:48:06;7.70;99.90
40291;DHT22;26000;48.304;13.626;2023-03-01T16:50:33;7.70;99.90
40291;DHT22;26000;48.304;13.626;2023-03-01T16:52:58;7.60;99.90
40291;DHT22;26000;48.304;13.626;2023-03-01T16:55:24;7.60;99.90
40291;DHT22;26000;48.304;13.626;2023-03-01T16:57:49;7.50;99.90
40291;DHT22;26000;48.304;13.626;2023-03-01T17:00:16;7.50;99.90
40291;DHT22;26000;48.304;13.626;2023-03-01T17:02:43;7.40;99.90
40291;DHT22;26000;48.304;13.626;2023-03-01T17:05:09;7.40;99.90
40291;DHT22;26000;48.304;13.626;2023-03-01T17:07:37;7.40;99.90
40291;DHT22;26000;48.304;13.626;2023-03-01T17:10:05;7.20;99.90
40291;DHT22;26000;48.304;13.626;2023-03-01T17:12:31;7.20;99.90
40291;DHT22;26000;48.304;13.626;2023-03-01T17:14:57;7.10;99.90
40291;DHT22;26000;48.304;13.626;2023-03-01T17:17:23;7.10;99.90
40291;DHT22;26000;48.304;13.626;2023-03-01T17:19:49;7.10;99.90
40291;DHT22;26000;48.304;13.626;2023-03-01T17:22:15;7.10;99.90
40291;DHT22;26000;48.304;13.626;2023-03-01T17:24:42;7.10;99.90
40291;DHT22;26000;48.304;13.626;2023-03-01T17:27:11;7.10;99.90
40291;DHT22;26000;48.304;13.626;2023-03-01T17:29:38;6.90;99.90
40291;DHT22;26000;48.304;13.626;2023-03-01T17:32:04;6.80;99.90
40291;DHT22;26000;48.304;13.626;2023-03-01T17:34:31;6.80;99.90
40291;DHT22;26000;48.304;13.626;2023-03-01T17:36:58;6.80;99.90